Tiempo atmosférico en la estación meteorológica de Olvera, Cádiz (540 m.)



Fecha
DESCASC
Temp. máxima en grados centígrados (hora)
DESCASC
Temp. mínima en grados centígrados (hora)
DESCASC
Temp. media en grados centígrados
DESCASC
Racha de viento máxima en m/sg (hora)
DESCASC
Velocidad máxima media en intervalos de 10 minutos(hora)
DESCASC
Precipitaciones diarias en mm
DESCASC
Precipitaciones de 00:00 a 06:00 en mm
DESCASC
Precipitaciones de 06:00 a 12:00 en mm
DESCASC
Precipitaciones de 12:00 a 18:00 en mm
DESCASC
Precipitaciones de 18:00 a 24:00 en mm
DESCASC
16-01-2020 17.6 (15:20) 6.1 (08:20) 11.9 5.56 (16:30) 3.33 (16:30) 0 0 0 0 0
15-01-2020 17 (14:50) 5.1 (06:50) 11 8.33 (15:10) 5.56 (15:20) 0 0 0 0 0
14-01-2020 13.2 (16:30) 4.1 (03:50) 8.6 4.72 (13:20) 3.06 (13:30) 0 0 0 0 0
13-01-2020 14.7 (15:00) 4.1 (07:10) 9.4 4.72 (13:30) 2.78 (13:10) 0 0 0 0 0
12-01-2020 15.1 (16:00) 4.7 (00:00) 9.9 5 (01:30) 3.06 (00:20) 0 0 0 0 0
11-01-2020 14.6 (14:10) 4.5 (00:00) 9.6 6.11 (15:50) 2.78 (15:50) 0 0 0 0 0
10-01-2020 11.9 (14:10) 5.1 (00:00) 8.5 9.17 (22:50) 5 (22:50) 0 0 0 0 0
09-01-2020 15.7 (15:20) 5.9 (00:00) 10.8 6.11 (16:30) 3.61 (16:20) 0 0 0 0 0
08-01-2020 19.9 (15:00) 6.2 (00:00) 13 4.44 (08:50) 2.78 (08:50) 0 0 0 0 0
07-01-2020 18.2 (15:10) 4.8 (00:00) 11.5 5 (08:00) 3.61 (08:00) 0 0 0 0 0
06-01-2020 14.8 (15:40) 4.7 (00:00) 9.8 4.72 (13:10) 2.5 (13:20) 0 0 0 0 0
05-01-2020 15.1 (16:00) 6.1 (00:00) 10.6 3.89 (08:30) 2.22 (07:30) 0 0 0 0 0
04-01-2020 14.1 (15:20) 3.9 (00:00) 9 5.56 (16:40) 3.61 (16:50) 0 0 0 0 0
03-01-2020 12.8 (16:30) 5.5 (00:00) 9.2 4.17 (17:00) 2.5 (07:10) 0 0 0 0 0
02-01-2020 16.3 (15:10) 6.3 (00:00) 11.3 4.17 (02:10) 3.06 (02:10) 0 0 0 0 0
01-01-2020 16.9 (16:20) 6 (00:00) 11.4 5 (00:10) 2.78 (18:30) 0 0 0 0 0
31-12-2019 -- (--) -- (--) -- -- (--) -- (--) -- 0 0 0 --
30-12-2019 -- (--) -- (--) -- -- (--) -- (--) -- 0 0 0 --
29-12-2019 19.5 (15:40) 9.4 (00:00) 14.4 8.89 (05:30) 4.72 (05:30) 0 0 0 0 0
28-12-2019 22.3 (15:30) 12.5 (00:00) 17.4 6.94 (23:40) 3.61 (07:50) 0 0 0 0 0
27-12-2019 20.9 (15:10) 13.8 (00:00) 17.3 9.44 (14:50) 4.72 (14:30) 0 0 0 0 0
26-12-2019 21.4 (15:10) 11.5 (00:00) 16.4 6.39 (18:40) 3.61 (15:10) 0 0 0 0 0
25-12-2019 22.6 (15:00) 11.6 (00:00) 17.1 4.72 (05:40) 3.06 (21:40) 0 0 0 0 0
24-12-2019 23.5 (14:50) 12.6 (00:00) 18.1 7.22 (15:00) 3.33 (07:10) 0 0 0 0 0
23-12-2019 20.5 (15:30) 8.5 (00:00) 14.5 4.72 (17:10) 3.61 (18:10) 0.2 0 0.2 0 0
22-12-2019 -- (--) -- (--) -- 12.78 (05:10) 6.39 (14:10) 0 0 0 0 0
21-12-2019 15.5 (17:50) 13.3 (00:00) 14.4 21.67 (00:20) 14.17 (04:10) 8.8 4 2.2 2.4 0.2
20-12-2019 15.2 (01:10) 14.2 (00:00) 14.7 26.39 (06:50) 17.78 (06:50) 42.2 9 15.4 11.8 6

Gráficas

Temp. máximas Temp. mínimas Temp. medias Precipitaciones Rachas de viento máximas Velocidades máximas media en intervalos de 10 minutos

Datos horarios

Fecha y hora oficial Temperatura (ºC) Velocidad del viento (km/h) Dirección del viento Racha (km/h) Dirección de racha Precipitación (mm) Presión (hPa) Tendencia (hPa) Humedad (%)
2020-01-18 23:00:00 13 19 Sudoeste 40 Sudoeste 2 -- -- 98
2020-01-18 22:00:00 13.1 28 Sudoeste 45 Sudoeste 0.2 -- -- 98
2020-01-18 21:00:00 13 24 Sudoeste 40 Sudoeste 0.2 -- -- 98
2020-01-18 20:00:00 12.8 22 Sudoeste 38 Oeste 0 -- -- 97
2020-01-18 19:00:00 12.5 22 Sudoeste 34 Sudoeste 0 -- -- 97
2020-01-18 18:00:00 12.1 9 Sudoeste 24 Sudoeste 0.2 -- -- 96
2020-01-18 17:00:00 12.3 15 Sudoeste 27 Oeste 0 -- -- 94
2020-01-18 16:00:00 12.8 15 Sudoeste 34 Oeste 0 -- -- 92
2020-01-18 15:00:00 12.5 20 Sudoeste 34 Sudoeste 0.6 -- -- 90
2020-01-18 14:00:00 13.8 17 Sudoeste 24 Sudoeste 0.2 -- -- 75
2020-01-18 13:00:00 12.8 3 Sur 10 Sudeste 0 -- -- 75
2020-01-18 12:00:00 11.1 3 Sudeste 11 Este 0.4 -- -- 78
2020-01-18 11:00:00 11.1 2 Nordeste 8 Nordeste 0 -- -- 71
2020-01-18 10:00:00 9.9 6 Este 9 Este 0 -- -- 70
2020-01-18 09:00:00 9.5 5 Este 14 Este 0 -- -- 65
2020-01-18 08:00:00 9.4 8 Este 10 Este 0 -- -- 66
2020-01-18 07:00:00 8.4 6 Este 12 Sudeste 0 -- -- 70
2020-01-18 06:00:00 8.1 7 Este 13 Este 0 -- -- 71
2020-01-18 05:00:00 8.4 4 Este 13 Este 0 -- -- 71
2020-01-18 04:00:00 7.3 3 Este 19 Este 0 -- -- 77
2020-01-18 03:00:00 7.7 9 Este 12 Este 0 -- -- 76
2020-01-18 02:00:00 7.5 6 Este 11 Este 0 -- -- 77
2020-01-18 01:00:00 7.9 6 Este 15 Este 0 -- -- 78
2020-01-18 00:00:00 8.4 5 Este 11 Este 0 -- -- 80
2020-01-17 23:00:00 9.4 5 Este 9 Sudeste 0 -- -- 83
2020-01-17 22:00:00 9.6 6 Este 10 Este 0 -- -- 85
2020-01-17 21:00:00 10.2 4 Este 11 Este 0 -- -- 84
2020-01-17 20:00:00 11.3 6 Nordeste 10 Nordeste 0 -- -- 81
2020-01-17 19:00:00 12.3 5 Nordeste 15 Noroeste 0 -- -- 76
2020-01-17 18:00:00 14.7 8 Noroeste 17 Oeste 0 -- -- 70
2020-01-17 17:00:00 15.2 6 Noroeste 16 Oeste 0 -- -- 66
2020-01-17 16:00:00 15.1 4 Oeste 12 Noroeste 0 -- -- 71
2020-01-17 15:00:00 15 6 Noroeste 16 Oeste 0 -- -- 70
2020-01-17 14:00:00 14.8 8 Oeste 14 Oeste 0 -- -- 75
2020-01-17 13:00:00 14.2 6 Oeste 11 Noroeste 0 -- -- 77
2020-01-17 12:00:00 13.6 5 Oeste 15 Oeste 0 -- -- 77
2020-01-17 11:00:00 11.6 0 Calma 6 Sur 0 -- -- 72
2020-01-17 10:00:00 10.7 2 Sur 9 Sudoeste 0 -- -- 68
2020-01-17 09:00:00 9.2 4 Sudeste 9 Este 0 -- -- 59
2020-01-17 08:00:00 8.9 4 Este 8 Este 0 -- -- 56
2020-01-17 07:00:00 8.2 6 Este 10 Este 0 -- -- 57
2020-01-17 06:00:00 7.9 2 Este 9 Este 0 -- -- 55
2020-01-17 05:00:00 8.5 2 Sudeste 9 Este 0 -- -- 53
2020-01-17 04:00:00 8 5 Este 12 Este 0 -- -- 57
2020-01-17 03:00:00 7.9 8 Este 12 Este 0 -- -- 61
2020-01-17 02:00:00 8.2 4 Sudeste 12 Este 0 -- -- 66
2020-01-17 01:00:00 7.6 5 Sudeste 12 Sudeste 0 -- -- 72
2020-01-17 00:00:00 8.4 3 Este 8 Este 0 -- -- 68
2020-01-16 23:00:00 8.7 4 Este 9 Este 0 -- -- 64
2020-01-16 22:00:00 10 2 Sudeste 8 Sur 0 -- -- 63
2020-01-16 21:00:00 10.7 3 Sur 9 Sudoeste 0 -- -- 64
2020-01-16 20:00:00 11.7 2 Este 8 Sur 0 -- -- 53
2020-01-16 19:00:00 13 3 Oeste 13 Oeste 0 -- -- 49
2020-01-16 18:00:00 15.4 4 Noroeste 18 Noroeste 0 -- -- 48
2020-01-16 17:00:00 17 9 Oeste 20 Oeste 0 -- -- 43
2020-01-16 16:00:00 17.6 9 Oeste 19 Oeste 0 -- -- 37
2020-01-16 15:00:00 17.4 9 Oeste 17 Oeste 0 -- -- 38
2020-01-16 14:00:00 16.6 7 Noroeste 13 Noroeste 0 -- -- 36
2020-01-16 13:00:00 15.4 5 Norte 9 Nordeste 0 -- -- 36
2020-01-16 12:00:00 13.6 4 Nordeste 6 Norte 0 -- -- 37
2020-01-16 11:00:00 11.3 3 Sudeste 9 Este 0 -- -- 51
2020-01-16 10:00:00 8.9 3 Este 10 Este 0 -- -- 56
2020-01-16 09:00:00 6.9 4 Este 13 Este 0 -- -- 62
2020-01-16 08:00:00 6.7 5 Este 13 Sudeste 0 -- -- 63
2020-01-16 07:00:00 7.3 7 Este 13 Sudeste 0 -- -- 59
2020-01-16 06:00:00 6.8 4 Este 14 Este 0 -- -- 57
2020-01-16 05:00:00 6.6 8 Este 14 Este 0 -- -- 59
2020-01-16 04:00:00 6.8 6 Este 12 Este 0 -- -- 59
2020-01-16 03:00:00 6.7 8 Este 12 Este 0 -- -- 60
2020-01-16 02:00:00 6.9 4 Este 14 Este 0 -- -- 61
2020-01-16 01:00:00 8.6 5 Este 9 Este 0 -- -- 56
2020-01-16 00:00:00 9.2 5 Este 9 Este 0 -- -- 52
2020-01-15 23:00:00 8.5 0 Calma 7 Este 0 -- -- 57
2020-01-15 22:00:00 9.4 3 Sudeste 11 Este 0 -- -- 56
2020-01-15 21:00:00 9.6 5 Este 10 Sudeste 0 -- -- 59
2020-01-15 20:00:00 11.3 0 Calma 6 Oeste 0 -- -- 55
2020-01-15 19:00:00 12.6 4 Oeste 13 Oeste 0 -- -- 51
2020-01-15 18:00:00 15.1 9 Oeste 20 Sudoeste 0 -- -- 45
2020-01-15 17:00:00 16.6 15 Oeste 27 Sudoeste 0 -- -- 37
2020-01-15 16:00:00 16.8 15 Oeste 30 Sudoeste 0 -- -- 36
2020-01-15 15:00:00 16.9 18 Oeste 30 Sudoeste 0 -- -- 34
2020-01-15 14:00:00 16.5 18 Oeste 26 Sudoeste 0 -- -- 34
2020-01-15 13:00:00 15.3 11 Sudoeste 18 Sudoeste 0 -- -- 42
2020-01-15 12:00:00 12.3 2 Sur 8 Este 0 -- -- 50
2020-01-15 11:00:00 10.2 3 Sudeste 11 Este 0 -- -- 60
2020-01-15 10:00:00 7.8 6 Este 10 Este 0 -- -- 67
2020-01-15 09:00:00 6.1 4 Este 12 Sudeste 0 -- -- 72
2020-01-15 08:00:00 5.7 4 Este 12 Este 0 -- -- 78
2020-01-15 07:00:00 5.1 6 Este 11 Este 0 -- -- 81
2020-01-15 06:00:00 6 5 Este 8 Este 0 -- -- 79
2020-01-15 05:00:00 6 4 Este 10 Sudeste 0 -- -- 80
2020-01-15 04:00:00 5.8 5 Este 13 Este 0 -- -- 83
2020-01-15 03:00:00 5.6 4 Este 9 Este 0 -- -- 83
2020-01-15 02:00:00 6 2 Este 13 Este 0 -- -- 83
2020-01-15 01:00:00 6.1 5 Este 9 Este 0 -- -- 83
2020-01-15 00:00:00 6.4 3 Sudeste 7 Este 0 -- -- 82
2020-01-14 23:00:00 6.5 4 Este 12 Sudeste 0 -- -- 82
2020-01-14 22:00:00 7.3 4 Este 7 Este 0 -- -- 78
2020-01-14 21:00:00 8.3 3 Este 4 Este 0 -- -- 76
2020-01-14 20:00:00 8.7 0 Calma 10 Oeste 0 -- -- 74
2020-01-14 19:00:00 9.9 4 Noroeste 13 Noroeste 0 -- -- 69
2020-01-14 18:00:00 11.6 7 Oeste 12 Oeste 0 -- -- 61
2020-01-14 17:00:00 13.2 2 Noroeste 8 Nordeste 0 -- -- 55
2020-01-14 16:00:00 12.8 3 Nordeste 10 Norte 0 -- -- 55
2020-01-14 15:00:00 12.4 4 Norte 17 Norte 0 -- -- 58
2020-01-14 14:00:00 11.8 6 Noroeste 17 Noroeste 0 -- -- 65
2020-01-14 13:00:00 11.7 5 Norte 17 Oeste 0 -- -- 64
2020-01-14 12:00:00 10.1 3 Noroeste 8 Sudoeste 0 -- -- 68
2020-01-14 11:00:00 7.7 4 Sudeste 9 Sudeste 0 -- -- 79
2020-01-14 10:00:00 5.2 6 Este 12 Este 0 -- -- 86
2020-01-14 09:00:00 4.8 5 Este 12 Este 0 -- -- 86
2020-01-14 08:00:00 4.3 5 Este 12 Este 0 -- -- 88
2020-01-14 07:00:00 4.9 7 Este 13 Sudeste 0 -- -- 85
2020-01-14 06:00:00 4.8 6 Este 14 Este 0 -- -- 86
2020-01-14 05:00:00 4.2 7 Este 13 Sudeste 0 -- -- 88
2020-01-14 04:00:00 4.3 4 Este 8 Este 0 -- -- 89
2020-01-14 03:00:00 5 4 Este 9 Este 0 -- -- 88
2020-01-14 02:00:00 5.1 5 Este 11 Este 0 -- -- 85
2020-01-14 01:00:00 5.6 5 Sudeste 10 Sudeste 0 -- -- 80
2020-01-14 00:00:00 5.1 4 Este 13 Este 0 -- -- 84
2020-01-13 23:00:00 5.9 4 Este 10 Este 0 -- -- 79
2020-01-13 22:00:00 7.6 5 Este 9 Este 0 -- -- 76
2020-01-13 21:00:00 8 4 Este 6 Sudeste 0 -- -- 74
2020-01-13 20:00:00 9.3 3 Norte 9 Norte 0 -- -- 70
2020-01-13 19:00:00 10.2 6 Noroeste 13 Noroeste 0 -- -- 66
2020-01-13 18:00:00 12.1 6 Noroeste 14 Oeste 0 -- -- 60
2020-01-13 17:00:00 14.3 7 Noroeste 14 Noroeste 0 -- -- 51
2020-01-13 16:00:00 14.3 5 Sudoeste 12 Norte 0 -- -- 46
2020-01-13 15:00:00 14.7 7 Noroeste 15 Noroeste 0 -- -- 47
2020-01-13 14:00:00 13.4 8 Noroeste 17 Noroeste 0 -- -- 49
2020-01-13 13:00:00 12.8 8 Noroeste 15 Oeste 0 -- -- 45
2020-01-13 12:00:00 11.3 3 Sudoeste 13 Sudeste 0 -- -- 48
2020-01-13 11:00:00 9.1 4 Sudeste 12 Sudeste 0 -- -- 61
2020-01-13 10:00:00 6.5 5 Sudeste 13 Sudeste 0 -- -- 68
2020-01-13 09:00:00 4.7 4 Sudeste 13 Este 0 -- -- 74
2020-01-13 08:00:00 4.7 3 Sudeste 11 Sudeste 0 -- -- 75
2020-01-13 07:00:00 4.2 2 Sudeste 11 Sudeste 0 -- -- 76
2020-01-13 06:00:00 4.9 3 Sudeste 9 Este 0 -- -- 77
2020-01-13 05:00:00 5.2 6 Este 12 Este 0 -- -- 78
2020-01-13 04:00:00 4.8 3 Este 10 Este 0 -- -- 79
2020-01-13 03:00:00 4.9 6 Este 14 Este 0 -- -- 79
2020-01-13 02:00:00 5.6 5 Sudeste 14 Sudeste 0 -- -- 76
2020-01-13 01:00:00 5.8 8 Este 12 Este 0 -- -- 77
2020-01-13 00:00:00 6 5 Este 15 Este 0 -- -- 75
2020-01-12 23:00:00 6.6 6 Este 10 Este 0 -- -- 73
2020-01-12 22:00:00 7.2 5 Este 8 Este 0 -- -- 70
2020-01-12 21:00:00 8.3 4 Este 9 Este 0 -- -- 66
2020-01-12 20:00:00 8.9 6 Nordeste 13 Nordeste 0 -- -- 64
2020-01-12 19:00:00 9.7 10 Nordeste 15 Nordeste 0 -- -- 62
2020-01-12 18:00:00 11.9 7 Nordeste 12 Nordeste 0 -- -- 56
2020-01-12 17:00:00 14 5 Norte 12 Nordeste 0 -- -- 54
2020-01-12 16:00:00 15.1 4 Noroeste 13 Nordeste 0 -- -- 50
2020-01-12 15:00:00 14.7 4 Nordeste 17 Noroeste 0 -- -- 47
2020-01-12 14:00:00 13.8 5 Norte 16 Noroeste 0 -- -- 54
2020-01-12 13:00:00 12.6 4 Norte 9 Norte 0 -- -- 57
2020-01-12 12:00:00 10.7 2 Nordeste 7 Oeste 0 -- -- 69
2020-01-12 11:00:00 8.6 4 Este 7 Sudeste 0 -- -- 73
2020-01-12 10:00:00 7 3 Este 5 Este 0 -- -- 78
2020-01-12 09:00:00 5 6 Este 10 Este 0 -- -- 83
2020-01-12 08:00:00 4.9 4 Este 7 Sudeste 0 -- -- 82
2020-01-12 07:00:00 5.7 6 Este 10 Este 0 -- -- 82
2020-01-12 06:00:00 5.5 0 Calma 8 Este 0 -- -- 80
2020-01-12 05:00:00 6.2 6 Este 12 Este 0 -- -- 79
2020-01-12 04:00:00 7 6 Sudeste 14 Este 0 -- -- 77
2020-01-12 03:00:00 7.3 8 Sudeste 17 Sudeste 0 -- -- 77
2020-01-12 02:00:00 7.3 7 Sudeste 18 Sudeste 0 -- -- 79
2020-01-12 01:00:00 6.8 7 Sudeste 17 Sudeste 0 -- -- 81
2020-01-12 00:00:00 6.3 8 Este 14 Este 0 -- -- 79
2020-01-11 23:00:00 6.5 6 Este 11 Sudeste 0 -- -- 76
2020-01-11 22:00:00 7.1 5 Este 10 Sudeste 0 -- -- 74
2020-01-11 21:00:00 8.4 4 Este 8 Este 0 -- -- 71
2020-01-11 20:00:00 9.3 4 Este 8 Nordeste 0 -- -- 65
2020-01-11 19:00:00 10.3 3 Nordeste 8 Oeste 0 -- -- 62
2020-01-11 18:00:00 12 3 Noroeste 11 Noroeste 0 -- -- 59
2020-01-11 17:00:00 12.5 5 Noroeste 14 Noroeste 0 -- -- 58
2020-01-11 16:00:00 13.2 10 Noroeste 22 Oeste 0 -- -- 57
2020-01-11 15:00:00 13.7 6 Noroeste 15 Norte 0 -- -- 51
2020-01-11 14:00:00 14.3 8 Noroeste 15 Norte 0 -- -- 51
2020-01-11 13:00:00 13.1 6 Sudoeste 12 Sudoeste 0 -- -- 53
2020-01-11 12:00:00 11.4 3 Sur 8 Este 0 -- -- 63
2020-01-11 11:00:00 9.9 4 Sudeste 12 Este 0 -- -- 69
2020-01-11 10:00:00 8.2 4 Este 10 Este 0 -- -- 73
2020-01-11 09:00:00 6.5 6 Este 12 Este 0 -- -- 77
2020-01-11 08:00:00 4.5 8 Este 13 Este 0 -- -- 76
2020-01-11 07:00:00 5.7 3 Este 8 Este 0 -- -- 67
2020-01-11 06:00:00 5.6 5 Este 8 Sudeste 0 -- -- 67
2020-01-11 05:00:00 5.8 4 Este 9 Este 0 -- -- 65
2020-01-11 04:00:00 5.8 4 Este 10 Este 0 -- -- 66
2020-01-11 03:00:00 5.4 3 Este 5 Nordeste 0 -- -- 68
2020-01-11 02:00:00 6.5 2 Nordeste 15 Nordeste 0 -- -- 64
2020-01-11 01:00:00 6.9 6 Este 14 Este 0 -- -- 63
2020-01-11 00:00:00 7 3 Este 28 Nordeste 0 -- -- 61
2020-01-10 23:00:00 8.6 17 Nordeste 33 Este 0 -- -- 55
2020-01-10 22:00:00 8.8 12 Este 24 Este 0 -- -- 56
2020-01-10 21:00:00 8.9 8 Este 17 Este 0 -- -- 61
2020-01-10 20:00:00 9.1 2 Sudeste 16 Nordeste 0 -- -- 67
2020-01-10 19:00:00 8.9 3 Este 10 Norte 0 -- -- 75
2020-01-10 18:00:00 10.1 6 Norte 17 Norte 0 -- -- 76
2020-01-10 17:00:00 10.8 5 Norte 15 Norte 0 -- -- 73
2020-01-10 16:00:00 10.7 8 Norte 22 Norte 0 -- -- 77
2020-01-10 15:00:00 11.4 12 Norte 29 Nordeste 0 -- -- 77
2020-01-10 14:00:00 11.5 9 Norte 19 Nordeste 0 -- -- 72
2020-01-10 13:00:00 11.1 5 Noroeste 10 Norte 0 -- -- 78
2020-01-10 12:00:00 10.2 3 Norte 11 Noroeste 0 -- -- 85
2020-01-10 11:00:00 9.4 3 Norte 6 Noroeste 0 -- -- 87
2020-01-10 10:00:00 8.5 0 Calma 4 Este 0 -- -- 89
2020-01-10 09:00:00 7.7 0 Calma 5 Este 0 -- -- 88
2020-01-10 08:00:00 7.5 0 Calma 3 Sudeste 0 -- -- 89
2020-01-10 07:00:00 7.1 2 Este 6 Este 0 -- -- 88
2020-01-10 06:00:00 6.6 0 Calma 8 Este 0 -- -- 89
2020-01-10 05:00:00 6 4 Este 8 Este 0 -- -- 89
2020-01-10 04:00:00 5.9 7 Este 12 Este 0 -- -- 92
2020-01-10 03:00:00 5.5 6 Este 11 Este 0 -- -- 90
2020-01-10 02:00:00 5.6 7 Este 10 Este 0 -- -- 90
2020-01-10 01:00:00 6.3 6 Este 10 Este 0 -- -- 87
2020-01-10 00:00:00 6.4 7 Este 9 Este 0 -- -- 88
2020-01-09 23:00:00 7.5 0 Calma 5 Sudeste 0 -- -- 85
2020-01-09 22:00:00 7.6 2 Este 9 Sudeste 0 -- -- 84
2020-01-09 21:00:00 8.3 3 Este 6 Este 0 -- -- 83
2020-01-09 20:00:00 9.5 4 Noroeste 9 Noroeste 0 -- -- 77
2020-01-09 19:00:00 10.6 6 Norte 10 Noroeste 0 -- -- 73
2020-01-09 18:00:00 12.8 4 Noroeste 12 Oeste 0 -- -- 66
2020-01-09 17:00:00 14.1 8 Noroeste 22 Noroeste 0 -- -- 62
2020-01-09 16:00:00 15.1 8 Noroeste 18 Noroeste 0 -- -- 53
2020-01-09 15:00:00 15.5 3 Sudoeste 11 Norte 0 -- -- 46
2020-01-09 14:00:00 13.8 3 Norte 14 Noroeste 0 -- -- 54
2020-01-09 13:00:00 12.9 5 Noroeste 12 Oeste 0 -- -- 59
2020-01-09 12:00:00 11.6 4 Oeste 8 Sudoeste 0 -- -- 65
2020-01-09 11:00:00 9.5 3 Sudeste 13 Sudeste 0 -- -- 73
2020-01-09 10:00:00 7.3 4 Sudeste 9 Sudeste 0 -- -- 78
2020-01-09 09:00:00 6.1 4 Este 12 Este 0 -- -- 81
2020-01-09 08:00:00 7 6 Este 15 Este 0 -- -- 76
2020-01-09 07:00:00 6.6 9 Este 14 Este 0 -- -- 77
2020-01-09 06:00:00 6.6 8 Este 14 Este 0 -- -- 78
2020-01-09 05:00:00 6.8 5 Este 11 Este 0 -- -- 78
2020-01-09 04:00:00 7.5 5 Este 14 Este 0 -- -- 76
2020-01-09 03:00:00 7.8 5 Este 11 Este 0 -- -- 78
2020-01-09 02:00:00 8.2 6 Este 10 Este 0 -- -- 77
2020-01-09 01:00:00 8 5 Este 10 Este 0 -- -- 75
2020-01-09 00:00:00 8.6 6 Este 12 Este 0 -- -- 73
2020-01-08 23:00:00 8.9 6 Este 12 Sudeste 0 -- -- 72
2020-01-08 22:00:00 9.9 5 Este 10 Sudeste 0 -- -- 66
2020-01-08 21:00:00 11.5 2 Sudeste 6 Este 0 -- -- 63
2020-01-08 20:00:00 12.1 0 Calma 7 Norte 0 -- -- 61
2020-01-08 19:00:00 13.4 3 Nordeste 10 Norte 0 -- -- 56
2020-01-08 18:00:00 16.2 9 Noroeste 13 Noroeste 0 -- -- 50
2020-01-08 17:00:00 18.9 8 Oeste 15 Oeste 0 -- -- 45
2020-01-08 16:00:00 19.4 8 Noroeste 16 Oeste 0 -- -- 41
2020-01-08 15:00:00 19.9 5 Oeste 11 Oeste 0 -- -- 36
2020-01-08 14:00:00 18.3 4 Noroeste 13 Oeste 0 -- -- 34
2020-01-08 13:00:00 17.4 6 Oeste 12 Noroeste 0 -- -- 37
2020-01-08 12:00:00 15.2 3 Sudoeste 6 Oeste 0 -- -- 42
2020-01-08 11:00:00 11.9 4 Este 10 Este 0 -- -- 50
2020-01-08 10:00:00 10.3 6 Este 15 Este 0 -- -- 48
2020-01-08 09:00:00 7.9 9 Este 16 Este 0 -- -- 50
2020-01-08 08:00:00 8 9 Este 15 Sudeste 0 -- -- 50
2020-01-08 07:00:00 6.5 9 Este 15 Este 0 -- -- 55
2020-01-08 06:00:00 6.5 4 Este 10 Este 0 -- -- 54
2020-01-08 05:00:00 6.6 6 Este 10 Este 0 -- -- 54
2020-01-08 04:00:00 7.5 6 Este 13 Este 0 -- -- 50
2020-01-08 03:00:00 8.2 9 Este 14 Este 0 -- -- 49
2020-01-08 02:00:00 8 8 Este 12 Este 0 -- -- 51
2020-01-08 01:00:00 8.4 6 Este 11 Este 0 -- -- 52
2020-01-08 00:00:00 8.6 5 Este 10 Sudeste 0 -- -- 50
2020-01-07 23:00:00 8.3 6 Este 10 Este 0 -- -- 58
2020-01-07 22:00:00 9.5 7 Este 13 Este 0 -- -- 58
2020-01-07 21:00:00 10.3 4 Este 10 Este 0 -- -- 70
2020-01-07 20:00:00 11.4 5 Este 8 Sudeste 0 -- -- 71
2020-01-07 19:00:00 12.3 2 Sudoeste 4 Nordeste 0 -- -- 69
2020-01-07 18:00:00 15.1 3 Noroeste 12 Oeste 0 -- -- 60
2020-01-07 17:00:00 16.5 7 Noroeste 17 Noroeste 0 -- -- 56
2020-01-07 16:00:00 17 10 Noroeste 15 Noroeste 0 -- -- 53
2020-01-07 15:00:00 18.1 6 Oeste 10 Noroeste 0 -- -- 40
2020-01-07 14:00:00 16.6 5 Noroeste 13 Oeste 0 -- -- 41
2020-01-07 13:00:00 14.9 9 Oeste 14 Oeste 0 -- -- 36
2020-01-07 12:00:00 13.6 4 Sudoeste 11 Sudoeste 0 -- -- 51
2020-01-07 11:00:00 13.4 3 Sudeste 12 Este 0 -- -- 45
2020-01-07 10:00:00 10.3 5 Nordeste 8 Nordeste 0 -- -- 43
2020-01-07 09:00:00 8.1 6 Sudeste 17 Nordeste 0 -- -- 52
2020-01-07 08:00:00 6.8 13 Este 18 Este 0 -- -- 63
2020-01-07 07:00:00 6.5 5 Nordeste 14 Este 0 -- -- 73
2020-01-07 06:00:00 4.8 3 Este 10 Este 0 -- -- 83
2020-01-07 05:00:00 5.7 2 Nordeste 10 Este 0 -- -- 81
2020-01-07 04:00:00 7.2 7 Este 16 Este 0 -- -- 76
2020-01-07 03:00:00 6.4 5 Este 10 Este 0 -- -- 80
2020-01-07 02:00:00 6.2 5 Este 12 Sudeste 0 -- -- 82
2020-01-07 01:00:00 6.9 6 Este 8 Este 0 -- -- 80
2020-01-07 00:00:00 7.6 3 Este 9 Este 0 -- -- 78
2020-01-06 23:00:00 7.4 7 Este 11 Este 0 -- -- 79
2020-01-06 22:00:00 7.5 5 Este 10 Este 0 -- -- 78
2020-01-06 21:00:00 9.1 2 Sudeste 8 Este 0 -- -- 75
2020-01-06 20:00:00 9.5 4 Este 8 Norte 0 -- -- 78
2020-01-06 19:00:00 10.9 4 Norte 10 Noroeste 0 -- -- 72
2020-01-06 18:00:00 13.9 4 Norte 9 Noroeste 0 -- -- 62
2020-01-06 17:00:00 14.7 5 Noroeste 9 Noroeste 0 -- -- 58
2020-01-06 16:00:00 14.8 4 Noroeste 9 Oeste 0 -- -- 59
2020-01-06 15:00:00 14.1 4 Norte 13 Oeste 0 -- -- 60
2020-01-06 14:00:00 13.2 5 Noroeste 17 Noroeste 0 -- -- 66
2020-01-06 13:00:00 11.4 7 Noroeste 15 Noroeste 0 -- -- 71
2020-01-06 12:00:00 9.8 4 Oeste 9 Oeste 0 -- -- 76
2020-01-06 11:00:00 8 4 Sudeste 9 Sudeste 0 -- -- 79
2020-01-06 10:00:00 6.2 0 Calma 8 Este 0 -- -- 84